sensor_id;sensor_type;location;lat;lon;timestamp;P1;durP1;ratioP1;P2;durP2;ratioP2
40256;SDS011;25977;45.462;9.210;2022-10-20T00:01:33;38.47;;;19.77;;
40256;SDS011;25977;45.462;9.210;2022-10-20T00:04:00;36.13;;;18.05;;
40256;SDS011;25977;45.462;9.210;2022-10-20T00:06:29;37.90;;;19.10;;
40256;SDS011;25977;45.462;9.210;2022-10-20T00:08:57;35.42;;;19.50;;
40256;SDS011;25977;45.462;9.210;2022-10-20T00:11:25;36.55;;;18.73;;
40256;SDS011;25977;45.462;9.210;2022-10-20T00:13:52;37.88;;;19.63;;
40256;SDS011;25977;45.462;9.210;2022-10-20T00:16:19;32.40;;;18.38;;
40256;SDS011;25977;45.462;9.210;2022-10-20T00:18:46;34.80;;;19.48;;
40256;SDS011;25977;45.462;9.210;2022-10-20T00:21:13;40.70;;;18.60;;
40256;SDS011;25977;45.462;9.210;2022-10-20T00:23:43;32.13;;;18.95;;
40256;SDS011;25977;45.462;9.210;2022-10-20T00:26:13;36.20;;;18.58;;
40256;SDS011;25977;45.462;9.210;2022-10-20T00:28:44;30.85;;;18.55;;
40256;SDS011;25977;45.462;9.210;2022-10-20T00:31:10;31.20;;;18.30;;
40256;SDS011;25977;45.462;9.210;2022-10-20T00:33:36;36.30;;;18.90;;
40256;SDS011;25977;45.462;9.210;2022-10-20T00:36:02;31.60;;;17.80;;
40256;SDS011;25977;45.462;9.210;2022-10-20T00:38:30;39.15;;;19.40;;
40256;SDS011;25977;45.462;9.210;2022-10-20T00:40:56;40.20;;;19.63;;
40256;SDS011;25977;45.462;9.210;2022-10-20T00:46:09;42.92;;;20.10;;
40256;SDS011;25977;45.462;9.210;2022-10-20T00:48:37;32.85;;;19.30;;
40256;SDS011;25977;45.462;9.210;2022-10-20T00:51:04;34.90;;;20.15;;
40256;SDS011;25977;45.462;9.210;2022-10-20T00:53:30;40.08;;;21.33;;
40256;SDS011;25977;45.462;9.210;2022-10-20T00:55:56;36.45;;;19.50;;
40256;SDS011;25977;45.462;9.210;2022-10-20T00:58:23;33.75;;;18.33;;
40256;SDS011;25977;45.462;9.210;2022-10-20T01:00:51;38.92;;;18.25;;
40256;SDS011;25977;45.462;9.210;2022-10-20T01:03:23;36.88;;;17.95;;
40256;SDS011;25977;45.462;9.210;2022-10-20T01:06:03;35.42;;;18.48;;
40256;SDS011;25977;45.462;9.210;2022-10-20T01:08:29;35.67;;;18.25;;
40256;SDS011;25977;45.462;9.210;2022-10-20T01:16:00;33.47;;;17.77;;
40256;SDS011;25977;45.462;9.210;2022-10-20T01:18:41;34.03;;;17.13;;
40256;SDS011;25977;45.462;9.210;2022-10-20T01:24:04;38.20;;;17.58;;
40256;SDS011;25977;45.462;9.210;2022-10-20T01:29:44;35.08;;;17.52;;
40256;SDS011;25977;45.462;9.210;2022-10-20T01:32:22;32.10;;;16.77;;
40256;SDS011;25977;45.462;9.210;2022-10-20T01:35:03;31.42;;;15.70;;
40256;SDS011;25977;45.462;9.210;2022-10-20T01:37:38;29.67;;;17.02;;
40256;SDS011;25977;45.462;9.210;2022-10-20T01:43:00;33.42;;;17.83;;
40256;SDS011;25977;45.462;9.210;2022-10-20T01:45:29;32.10;;;17.48;;
40256;SDS011;25977;45.462;9.210;2022-10-20T01:47:58;26.63;;;16.25;;
40256;SDS011;25977;45.462;9.210;2022-10-20T01:50:29;31.17;;;16.48;;
40256;SDS011;25977;45.462;9.210;2022-10-20T01:52:56;32.53;;;17.83;;
40256;SDS011;25977;45.462;9.210;2022-10-20T01:55:22;28.33;;;16.40;;
40256;SDS011;25977;45.462;9.210;2022-10-20T02:00:26;35.92;;;17.60;;
40256;SDS011;25977;45.462;9.210;2022-10-20T02:08:43;30.90;;;18.10;;
40256;SDS011;25977;45.462;9.210;2022-10-20T02:11:13;32.20;;;16.98;;
40256;SDS011;25977;45.462;9.210;2022-10-20T02:13:58;30.10;;;17.48;;
40256;SDS011;25977;45.462;9.210;2022-10-20T02:16:35;30.08;;;16.92;;
40256;SDS011;25977;45.462;9.210;2022-10-20T02:19:04;29.33;;;17.35;;
40256;SDS011;25977;45.462;9.210;2022-10-20T02:21:33;27.65;;;16.25;;
40256;SDS011;25977;45.462;9.210;2022-10-20T02:23:59;29.80;;;16.08;;
40256;SDS011;25977;45.462;9.210;2022-10-20T02:26:30;35.83;;;16.60;;
40256;SDS011;25977;45.462;9.210;2022-10-20T02:28:58;28.52;;;15.35;;
40256;SDS011;25977;45.462;9.210;2022-10-20T02:31:27;32.58;;;17.33;;
40256;SDS011;25977;45.462;9.210;2022-10-20T02:33:54;29.23;;;16.55;;
40256;SDS011;25977;45.462;9.210;2022-10-20T02:36:24;28.17;;;16.70;;
40256;SDS011;25977;45.462;9.210;2022-10-20T02:38:52;28.50;;;15.77;;
40256;SDS011;25977;45.462;9.210;2022-10-20T02:41:18;26.88;;;16.35;;
40256;SDS011;25977;45.462;9.210;2022-10-20T02:43:43;29.92;;;16.77;;
40256;SDS011;25977;45.462;9.210;2022-10-20T02:46:09;26.27;;;16.20;;
40256;SDS011;25977;45.462;9.210;2022-10-20T02:48:35;27.33;;;16.02;;
40256;SDS011;25977;45.462;9.210;2022-10-20T02:51:03;33.50;;;17.38;;
40256;SDS011;25977;45.462;9.210;2022-10-20T02:53:30;26.20;;;15.60;;
40256;SDS011;25977;45.462;9.210;2022-10-20T02:55:57;29.00;;;16.60;;
40256;SDS011;25977;45.462;9.210;2022-10-20T02:58:23;28.52;;;16.83;;
40256;SDS011;25977;45.462;9.210;2022-10-20T03:00:49;30.20;;;16.50;;
40256;SDS011;25977;45.462;9.210;2022-10-20T03:03:15;27.42;;;16.15;;
40256;SDS011;25977;45.462;9.210;2022-10-20T03:05:42;30.35;;;17.10;;
40256;SDS011;25977;45.462;9.210;2022-10-20T03:08:09;28.17;;;17.70;;
40256;SDS011;25977;45.462;9.210;2022-10-20T03:10:36;33.33;;;16.98;;
40256;SDS011;25977;45.462;9.210;2022-10-20T03:13:03;33.53;;;17.15;;
40256;SDS011;25977;45.462;9.210;2022-10-20T03:15:30;30.27;;;16.05;;
40256;SDS011;25977;45.462;9.210;2022-10-20T03:17:55;32.10;;;16.42;;
40256;SDS011;25977;45.462;9.210;2022-10-20T03:20:21;32.42;;;17.30;;
40256;SDS011;25977;45.462;9.210;2022-10-20T03:22:47;29.10;;;16.38;;
40256;SDS011;25977;45.462;9.210;2022-10-20T03:25:13;32.85;;;17.05;;
40256;SDS011;25977;45.462;9.210;2022-10-20T03:27:38;29.08;;;16.25;;
40256;SDS011;25977;45.462;9.210;2022-10-20T03:30:04;29.23;;;16.27;;
40256;SDS011;25977;45.462;9.210;2022-10-20T03:32:30;27.63;;;16.00;;
40256;SDS011;25977;45.462;9.210;2022-10-20T03:34:56;29.88;;;17.05;;
40256;SDS011;25977;45.462;9.210;2022-10-20T03:37:21;27.85;;;15.85;;
40256;SDS011;25977;45.462;9.210;2022-10-20T03:39:47;30.60;;;17.05;;
40256;SDS011;25977;45.462;9.210;2022-10-20T03:42:13;26.48;;;15.35;;
40256;SDS011;25977;45.462;9.210;2022-10-20T03:44:39;30.80;;;16.70;;
40256;SDS011;25977;45.462;9.210;2022-10-20T03:47:05;34.13;;;17.58;;
40256;SDS011;25977;45.462;9.210;2022-10-20T03:49:31;33.70;;;16.80;;
40256;SDS011;25977;45.462;9.210;2022-10-20T03:51:58;27.15;;;16.20;;
40256;SDS011;25977;45.462;9.210;2022-10-20T03:54:24;27.42;;;16.30;;
40256;SDS011;25977;45.462;9.210;2022-10-20T03:56:49;29.83;;;15.23;;
40256;SDS011;25977;45.462;9.210;2022-10-20T03:59:15;26.58;;;16.02;;
40256;SDS011;25977;45.462;9.210;2022-10-20T04:01:44;32.35;;;16.33;;
40256;SDS011;25977;45.462;9.210;2022-10-20T04:04:10;29.23;;;16.08;;
40256;SDS011;25977;45.462;9.210;2022-10-20T04:06:36;26.88;;;15.65;;
40256;SDS011;25977;45.462;9.210;2022-10-20T04:09:02;29.27;;;17.13;;
40256;SDS011;25977;45.462;9.210;2022-10-20T04:11:29;32.85;;;16.17;;
40256;SDS011;25977;45.462;9.210;2022-10-20T04:13:55;41.72;;;16.83;;
40256;SDS011;25977;45.462;9.210;2022-10-20T04:16:22;31.17;;;17.55;;
40256;SDS011;25977;45.462;9.210;2022-10-20T04:18:48;29.67;;;17.15;;
40256;SDS011;25977;45.462;9.210;2022-10-20T04:21:16;31.75;;;16.80;;
40256;SDS011;25977;45.462;9.210;2022-10-20T04:23:42;29.67;;;18.15;;
40256;SDS011;25977;45.462;9.210;2022-10-20T04:26:09;32.90;;;16.27;;
40256;SDS011;25977;45.462;9.210;2022-10-20T04:28:35;32.47;;;14.70;;
40256;SDS011;25977;45.462;9.210;2022-10-20T04:31:01;30.60;;;15.65;;
40256;SDS011;25977;45.462;9.210;2022-10-20T04:33:27;30.05;;;15.32;;
40256;SDS011;25977;45.462;9.210;2022-10-20T04:36:00;26.98;;;16.42;;
40256;SDS011;25977;45.462;9.210;2022-10-20T04:38:31;29.15;;;15.57;;
40256;SDS011;25977;45.462;9.210;2022-10-20T04:40:59;27.05;;;15.23;;
40256;SDS011;25977;45.462;9.210;2022-10-20T04:43:25;30.58;;;15.82;;
40256;SDS011;25977;45.462;9.210;2022-10-20T04:45:51;29.88;;;17.60;;
40256;SDS011;25977;45.462;9.210;2022-10-20T04:48:22;31.10;;;17.23;;
40256;SDS011;25977;45.462;9.210;2022-10-20T04:51:08;29.30;;;16.13;;
40256;SDS011;25977;45.462;9.210;2022-10-20T04:53:35;32.15;;;16.42;;
40256;SDS011;25977;45.462;9.210;2022-10-20T04:56:01;30.23;;;16.92;;
40256;SDS011;25977;45.462;9.210;2022-10-20T04:58:28;29.55;;;16.77;;
40256;SDS011;25977;45.462;9.210;2022-10-20T05:00:58;29.15;;;17.17;;
40256;SDS011;25977;45.462;9.210;2022-10-20T05:03:25;31.23;;;16.08;;
40256;SDS011;25977;45.462;9.210;2022-10-20T05:05:51;26.77;;;16.00;;
40256;SDS011;25977;45.462;9.210;2022-10-20T05:08:16;54.58;;;17.33;;
40256;SDS011;25977;45.462;9.210;2022-10-20T05:10:42;30.00;;;16.10;;
40256;SDS011;25977;45.462;9.210;2022-10-20T05:13:08;29.05;;;16.60;;
40256;SDS011;25977;45.462;9.210;2022-10-20T05:15:34;29.38;;;16.60;;
40256;SDS011;25977;45.462;9.210;2022-10-20T05:18:00;27.83;;;16.67;;
40256;SDS011;25977;45.462;9.210;2022-10-20T05:20:25;34.40;;;16.65;;
40256;SDS011;25977;45.462;9.210;2022-10-20T05:22:51;26.20;;;15.65;;
40256;SDS011;25977;45.462;9.210;2022-10-20T05:25:17;25.90;;;14.80;;
40256;SDS011;25977;45.462;9.210;2022-10-20T05:27:42;31.27;;;15.85;;
40256;SDS011;25977;45.462;9.210;2022-10-20T05:30:08;28.33;;;16.05;;
40256;SDS011;25977;45.462;9.210;2022-10-20T05:32:34;30.05;;;15.80;;
40256;SDS011;25977;45.462;9.210;2022-10-20T05:35:00;26.98;;;15.50;;
40256;SDS011;25977;45.462;9.210;2022-10-20T05:37:26;26.35;;;14.65;;
40256;SDS011;25977;45.462;9.210;2022-10-20T05:39:51;28.35;;;16.00;;
40256;SDS011;25977;45.462;9.210;2022-10-20T05:42:17;31.70;;;15.63;;
40256;SDS011;25977;45.462;9.210;2022-10-20T05:44:43;25.30;;;14.48;;
40256;SDS011;25977;45.462;9.210;2022-10-20T05:47:08;26.67;;;15.50;;
40256;SDS011;25977;45.462;9.210;2022-10-20T05:49:34;25.48;;;15.50;;
40256;SDS011;25977;45.462;9.210;2022-10-20T05:52:00;32.60;;;16.75;;
40256;SDS011;25977;45.462;9.210;2022-10-20T05:54:25;31.52;;;17.33;;
40256;SDS011;25977;45.462;9.210;2022-10-20T05:56:51;34.03;;;16.85;;
40256;SDS011;25977;45.462;9.210;2022-10-20T05:59:17;29.70;;;15.95;;
40256;SDS011;25977;45.462;9.210;2022-10-20T06:01:42;35.17;;;18.38;;
40256;SDS011;25977;45.462;9.210;2022-10-20T06:04:15;30.10;;;16.57;;
40256;SDS011;25977;45.462;9.210;2022-10-20T06:06:42;32.08;;;15.48;;
40256;SDS011;25977;45.462;9.210;2022-10-20T06:09:09;27.35;;;16.15;;
40256;SDS011;25977;45.462;9.210;2022-10-20T06:11:35;45.15;;;17.80;;
40256;SDS011;25977;45.462;9.210;2022-10-20T06:14:02;33.88;;;18.35;;
40256;SDS011;25977;45.462;9.210;2022-10-20T06:16:28;30.92;;;16.33;;
40256;SDS011;25977;45.462;9.210;2022-10-20T06:18:55;31.27;;;15.82;;
40256;SDS011;25977;45.462;9.210;2022-10-20T06:21:22;33.20;;;17.17;;
40256;SDS011;25977;45.462;9.210;2022-10-20T06:23:52;33.17;;;15.93;;
40256;SDS011;25977;45.462;9.210;2022-10-20T06:26:19;29.52;;;16.23;;
40256;SDS011;25977;45.462;9.210;2022-10-20T06:28:48;38.45;;;17.92;;
40256;SDS011;25977;45.462;9.210;2022-10-20T06:31:19;31.08;;;16.50;;
40256;SDS011;25977;45.462;9.210;2022-10-20T06:33:56;31.35;;;15.82;;
40256;SDS011;25977;45.462;9.210;2022-10-20T06:36:22;36.45;;;19.27;;
40256;SDS011;25977;45.462;9.210;2022-10-20T06:38:53;31.10;;;16.02;;
40256;SDS011;25977;45.462;9.210;2022-10-20T06:41:20;32.17;;;15.35;;
40256;SDS011;25977;45.462;9.210;2022-10-20T06:43:46;33.42;;;14.93;;
40256;SDS011;25977;45.462;9.210;2022-10-20T06:46:13;36.17;;;17.00;;
40256;SDS011;25977;45.462;9.210;2022-10-20T06:48:41;30.73;;;15.50;;
40256;SDS011;25977;45.462;9.210;2022-10-20T06:51:12;42.35;;;19.13;;
40256;SDS011;25977;45.462;9.210;2022-10-20T06:53:39;44.13;;;17.55;;
40256;SDS011;25977;45.462;9.210;2022-10-20T06:56:07;45.47;;;16.85;;
40256;SDS011;25977;45.462;9.210;2022-10-20T06:58:38;34.35;;;16.83;;
40256;SDS011;25977;45.462;9.210;2022-10-20T07:03:41;31.65;;;15.65;;
40256;SDS011;25977;45.462;9.210;2022-10-20T07:06:09;38.58;;;17.77;;
40256;SDS011;25977;45.462;9.210;2022-10-20T07:08:37;34.53;;;16.90;;
40256;SDS011;25977;45.462;9.210;2022-10-20T07:13:30;37.55;;;16.17;;
40256;SDS011;25977;45.462;9.210;2022-10-20T07:15:57;35.72;;;16.08;;
40256;SDS011;25977;45.462;9.210;2022-10-20T07:18:24;28.42;;;15.10;;
40256;SDS011;25977;45.462;9.210;2022-10-20T07:20:54;38.65;;;17.48;;
40256;SDS011;25977;45.462;9.210;2022-10-20T07:23:24;26.35;;;14.13;;
40256;SDS011;25977;45.462;9.210;2022-10-20T07:25:51;27.58;;;14.43;;
40256;SDS011;25977;45.462;9.210;2022-10-20T07:28:23;26.42;;;13.85;;
40256;SDS011;25977;45.462;9.210;2022-10-20T07:30:49;24.95;;;12.63;;
40256;SDS011;25977;45.462;9.210;2022-10-20T07:33:15;20.85;;;13.38;;
40256;SDS011;25977;45.462;9.210;2022-10-20T07:35:40;33.30;;;12.88;;
40256;SDS011;25977;45.462;9.210;2022-10-20T07:38:06;32.05;;;15.05;;
40256;SDS011;25977;45.462;9.210;2022-10-20T07:40:32;33.15;;;12.73;;
40256;SDS011;25977;45.462;9.210;2022-10-20T07:42:58;27.60;;;12.80;;
40256;SDS011;25977;45.462;9.210;2022-10-20T07:45:23;26.50;;;12.40;;
40256;SDS011;25977;45.462;9.210;2022-10-20T07:47:49;26.33;;;11.63;;
40256;SDS011;25977;45.462;9.210;2022-10-20T07:50:15;21.63;;;12.73;;
40256;SDS011;25977;45.462;9.210;2022-10-20T07:52:41;27.73;;;12.85;;
40256;SDS011;25977;45.462;9.210;2022-10-20T07:55:07;19.38;;;12.07;;
40256;SDS011;25977;45.462;9.210;2022-10-20T07:57:33;23.42;;;12.60;;
40256;SDS011;25977;45.462;9.210;2022-10-20T07:59:58;27.25;;;13.50;;
40256;SDS011;25977;45.462;9.210;2022-10-20T08:02:24;32.10;;;13.07;;
40256;SDS011;25977;45.462;9.210;2022-10-20T08:04:50;27.77;;;13.90;;
40256;SDS011;25977;45.462;9.210;2022-10-20T08:07:15;26.63;;;13.85;;
40256;SDS011;25977;45.462;9.210;2022-10-20T08:09:41;28.67;;;13.45;;
40256;SDS011;25977;45.462;9.210;2022-10-20T08:12:07;25.55;;;14.18;;
40256;SDS011;25977;45.462;9.210;2022-10-20T08:14:33;24.83;;;12.50;;
40256;SDS011;25977;45.462;9.210;2022-10-20T08:17:00;25.88;;;14.10;;
40256;SDS011;25977;45.462;9.210;2022-10-20T08:19:27;28.63;;;14.52;;
40256;SDS011;25977;45.462;9.210;2022-10-20T08:21:53;25.15;;;13.23;;
40256;SDS011;25977;45.462;9.210;2022-10-20T08:24:19;28.88;;;13.15;;
40256;SDS011;25977;45.462;9.210;2022-10-20T08:26:44;29.85;;;14.38;;
40256;SDS011;25977;45.462;9.210;2022-10-20T08:29:10;24.48;;;13.27;;
40256;SDS011;25977;45.462;9.210;2022-10-20T08:31:36;26.45;;;13.15;;
40256;SDS011;25977;45.462;9.210;2022-10-20T08:34:03;29.67;;;14.05;;
40256;SDS011;25977;45.462;9.210;2022-10-20T08:36:29;23.38;;;14.23;;
40256;SDS011;25977;45.462;9.210;2022-10-20T08:38:57;33.83;;;14.68;;
40256;SDS011;25977;45.462;9.210;2022-10-20T08:41:28;26.33;;;13.10;;
40256;SDS011;25977;45.462;9.210;2022-10-20T08:44:00;26.08;;;14.90;;
40256;SDS011;25977;45.462;9.210;2022-10-20T08:46:29;30.00;;;13.43;;
40256;SDS011;25977;45.462;9.210;2022-10-20T08:48:57;26.50;;;14.32;;
40256;SDS011;25977;45.462;9.210;2022-10-20T08:51:24;23.23;;;12.82;;
40256;SDS011;25977;45.462;9.210;2022-10-20T08:53:55;29.42;;;13.30;;
40256;SDS011;25977;45.462;9.210;2022-10-20T08:56:24;30.63;;;13.82;;
40256;SDS011;25977;45.462;9.210;2022-10-20T08:58:52;29.38;;;15.05;;
40256;SDS011;25977;45.462;9.210;2022-10-20T09:01:19;32.75;;;18.63;;
40256;SDS011;25977;45.462;9.210;2022-10-20T09:03:57;40.08;;;20.55;;
40256;SDS011;25977;45.462;9.210;2022-10-20T09:06:27;39.28;;;19.77;;
40256;SDS011;25977;45.462;9.210;2022-10-20T09:08:53;48.28;;;23.05;;
40256;SDS011;25977;45.462;9.210;2022-10-20T09:11:27;50.92;;;25.67;;
40256;SDS011;25977;45.462;9.210;2022-10-20T09:14:00;50.70;;;24.65;;
40256;SDS011;25977;45.462;9.210;2022-10-20T09:16:28;48.80;;;24.88;;
40256;SDS011;25977;45.462;9.210;2022-10-20T09:19:02;42.47;;;22.80;;
40256;SDS011;25977;45.462;9.210;2022-10-20T09:21:28;47.50;;;22.85;;
40256;SDS011;25977;45.462;9.210;2022-10-20T09:24:00;51.33;;;26.58;;
40256;SDS011;25977;45.462;9.210;2022-10-20T09:26:32;57.00;;;28.40;;
40256;SDS011;25977;45.462;9.210;2022-10-20T09:29:04;56.88;;;28.30;;
40256;SDS011;25977;45.462;9.210;2022-10-20T09:31:51;63.50;;;30.52;;
40256;SDS011;25977;45.462;9.210;2022-10-20T09:34:26;56.28;;;28.88;;
40256;SDS011;25977;45.462;9.210;2022-10-20T09:39:41;64.25;;;27.98;;
40256;SDS011;25977;45.462;9.210;2022-10-20T09:42:34;57.35;;;29.08;;
40256;SDS011;25977;45.462;9.210;2022-10-20T09:45:04;68.03;;;29.98;;
40256;SDS011;25977;45.462;9.210;2022-10-20T09:47:41;60.63;;;30.48;;
40256;SDS011;25977;45.462;9.210;2022-10-20T09:50:15;57.35;;;30.90;;
40256;SDS011;25977;45.462;9.210;2022-10-20T09:52:49;64.63;;;29.63;;
40256;SDS011;25977;45.462;9.210;2022-10-20T09:55:18;61.15;;;31.00;;
40256;SDS011;25977;45.462;9.210;2022-10-20T09:57:47;63.97;;;30.70;;
40256;SDS011;25977;45.462;9.210;2022-10-20T10:00:24;67.68;;;31.90;;
40256;SDS011;25977;45.462;9.210;2022-10-20T10:05:45;67.07;;;32.40;;
40256;SDS011;25977;45.462;9.210;2022-10-20T10:08:15;72.70;;;34.88;;
40256;SDS011;25977;45.462;9.210;2022-10-20T10:10:42;62.08;;;31.83;;
40256;SDS011;25977;45.462;9.210;2022-10-20T10:13:44;75.35;;;33.40;;
40256;SDS011;25977;45.462;9.210;2022-10-20T10:16:08;69.28;;;35.08;;
40256;SDS011;25977;45.462;9.210;2022-10-20T10:18:36;67.55;;;35.17;;
40256;SDS011;25977;45.462;9.210;2022-10-20T10:21:06;67.40;;;33.40;;
40256;SDS011;25977;45.462;9.210;2022-10-20T10:29:22;65.78;;;34.00;;
40256;SDS011;25977;45.462;9.210;2022-10-20T10:35:44;69.50;;;34.58;;
40256;SDS011;25977;45.462;9.210;2022-10-20T10:37:50;77.60;;;37.83;;
40256;SDS011;25977;45.462;9.210;2022-10-20T10:40:18;74.57;;;38.13;;
40256;SDS011;25977;45.462;9.210;2022-10-20T10:46:07;79.57;;;38.08;;
40256;SDS011;25977;45.462;9.210;2022-10-20T10:54:22;73.95;;;36.70;;
40256;SDS011;25977;45.462;9.210;2022-10-20T10:56:58;75.82;;;36.78;;
40256;SDS011;25977;45.462;9.210;2022-10-20T10:59:49;66.50;;;33.75;;
40256;SDS011;25977;45.462;9.210;2022-10-20T11:13:02;62.53;;;34.67;;
40256;SDS011;25977;45.462;9.210;2022-10-20T11:16:00;66.38;;;33.92;;
40256;SDS011;25977;45.462;9.210;2022-10-20T11:24:04;76.35;;;33.85;;
40256;SDS011;25977;45.462;9.210;2022-10-20T11:26:55;70.18;;;37.15;;
40256;SDS011;25977;45.462;9.210;2022-10-20T11:29:44;64.85;;;34.00;;
40256;SDS011;25977;45.462;9.210;2022-10-20T11:32:25;68.32;;;34.15;;
40256;SDS011;25977;45.462;9.210;2022-10-20T11:40:02;63.95;;;32.17;;
40256;SDS011;25977;45.462;9.210;2022-10-20T11:48:32;66.30;;;32.55;;
40256;SDS011;25977;45.462;9.210;2022-10-20T12:07:48;52.63;;;27.30;;
40256;SDS011;25977;45.462;9.210;2022-10-20T12:10:36;49.85;;;26.50;;
40256;SDS011;25977;45.462;9.210;2022-10-20T12:13:17;50.33;;;26.98;;
40256;SDS011;25977;45.462;9.210;2022-10-20T12:15:50;49.25;;;26.98;;
40256;SDS011;25977;45.462;9.210;2022-10-20T12:20:54;51.20;;;27.95;;
40256;SDS011;25977;45.462;9.210;2022-10-20T12:26:34;46.95;;;28.02;;
40256;SDS011;25977;45.462;9.210;2022-10-20T12:29:47;50.90;;;28.27;;
40256;SDS011;25977;45.462;9.210;2022-10-20T12:35:01;55.30;;;29.35;;
40256;SDS011;25977;45.462;9.210;2022-10-20T12:37:57;49.55;;;28.02;;
40256;SDS011;25977;45.462;9.210;2022-10-20T12:40:30;51.22;;;27.45;;
40256;SDS011;25977;45.462;9.210;2022-10-20T12:43:04;55.83;;;29.50;;
40256;SDS011;25977;45.462;9.210;2022-10-20T12:45:45;49.40;;;28.33;;
40256;SDS011;25977;45.462;9.210;2022-10-20T12:48:16;57.03;;;28.52;;
40256;SDS011;25977;45.462;9.210;2022-10-20T12:50:46;49.88;;;26.95;;
40256;SDS011;25977;45.462;9.210;2022-10-20T12:59:06;53.42;;;28.88;;
40256;SDS011;25977;45.462;9.210;2022-10-20T13:13:31;49.03;;;26.48;;
40256;SDS011;25977;45.462;9.210;2022-10-20T13:20:41;43.72;;;25.13;;
40256;SDS011;25977;45.462;9.210;2022-10-20T13:23:17;46.40;;;24.65;;
40256;SDS011;25977;45.462;9.210;2022-10-20T13:25:56;44.90;;;25.60;;
40256;SDS011;25977;45.462;9.210;2022-10-20T13:28:24;53.33;;;25.75;;
40256;SDS011;25977;45.462;9.210;2022-10-20T13:39:52;47.47;;;24.05;;
40256;SDS011;25977;45.462;9.210;2022-10-20T13:42:55;40.03;;;24.38;;
40256;SDS011;25977;45.462;9.210;2022-10-20T13:51:08;42.60;;;22.50;;
40256;SDS011;25977;45.462;9.210;2022-10-20T13:53:39;37.53;;;22.38;;
40256;SDS011;25977;45.462;9.210;2022-10-20T13:58:39;38.78;;;21.88;;
40256;SDS011;25977;45.462;9.210;2022-10-20T14:01:12;37.63;;;22.33;;
40256;SDS011;25977;45.462;9.210;2022-10-20T14:03:47;39.28;;;22.48;;
40256;SDS011;25977;45.462;9.210;2022-10-20T14:08:58;44.95;;;21.75;;
40256;SDS011;25977;45.462;9.210;2022-10-20T14:11:35;38.00;;;23.42;;
40256;SDS011;25977;45.462;9.210;2022-10-20T14:14:00;48.70;;;22.75;;
40256;SDS011;25977;45.462;9.210;2022-10-20T14:16:27;31.90;;;20.27;;
40256;SDS011;25977;45.462;9.210;2022-10-20T14:19:01;36.78;;;20.10;;
40256;SDS011;25977;45.462;9.210;2022-10-20T14:21:43;35.75;;;21.38;;
40256;SDS011;25977;45.462;9.210;2022-10-20T14:24:12;45.50;;;21.67;;
40256;SDS011;25977;45.462;9.210;2022-10-20T14:26:43;36.17;;;20.85;;
40256;SDS011;25977;45.462;9.210;2022-10-20T14:29:13;37.78;;;21.80;;
40256;SDS011;25977;45.462;9.210;2022-10-20T14:31:41;38.80;;;21.17;;
40256;SDS011;25977;45.462;9.210;2022-10-20T14:34:16;39.65;;;21.50;;
40256;SDS011;25977;45.462;9.210;2022-10-20T14:36:53;38.08;;;21.92;;
40256;SDS011;25977;45.462;9.210;2022-10-20T14:39:41;42.17;;;23.63;;
40256;SDS011;25977;45.462;9.210;2022-10-20T14:42:21;38.40;;;20.75;;
40256;SDS011;25977;45.462;9.210;2022-10-20T14:44:49;47.70;;;21.13;;
40256;SDS011;25977;45.462;9.210;2022-10-20T14:47:16;32.85;;;19.52;;
40256;SDS011;25977;45.462;9.210;2022-10-20T14:49:45;31.45;;;20.83;;
40256;SDS011;25977;45.462;9.210;2022-10-20T14:54:44;36.10;;;18.52;;
40256;SDS011;25977;45.462;9.210;2022-10-20T14:59:56;36.28;;;19.58;;
40256;SDS011;25977;45.462;9.210;2022-10-20T15:02:27;34.00;;;19.15;;
40256;SDS011;25977;45.462;9.210;2022-10-20T15:05:19;38.63;;;20.42;;
40256;SDS011;25977;45.462;9.210;2022-10-20T15:07:47;33.30;;;19.00;;
40256;SDS011;25977;45.462;9.210;2022-10-20T15:10:14;37.65;;;19.33;;
40256;SDS011;25977;45.462;9.210;2022-10-20T15:12:43;36.60;;;18.52;;
40256;SDS011;25977;45.462;9.210;2022-10-20T15:17:46;36.03;;;19.60;;
40256;SDS011;25977;45.462;9.210;2022-10-20T15:20:31;44.90;;;19.15;;
40256;SDS011;25977;45.462;9.210;2022-10-20T15:23:39;40.78;;;19.77;;
40256;SDS011;25977;45.462;9.210;2022-10-20T15:26:00;36.22;;;18.80;;
40256;SDS011;25977;45.462;9.210;2022-10-20T15:31:06;31.73;;;18.63;;
40256;SDS011;25977;45.462;9.210;2022-10-20T15:33:40;36.70;;;19.17;;
40256;SDS011;25977;45.462;9.210;2022-10-20T15:36:13;35.72;;;19.80;;
40256;SDS011;25977;45.462;9.210;2022-10-20T15:38:44;30.88;;;18.95;;
40256;SDS011;25977;45.462;9.210;2022-10-20T15:41:21;29.65;;;17.58;;
40256;SDS011;25977;45.462;9.210;2022-10-20T15:43:52;33.72;;;17.63;;
40256;SDS011;25977;45.462;9.210;2022-10-20T15:46:18;31.33;;;18.20;;
40256;SDS011;25977;45.462;9.210;2022-10-20T15:48:44;33.92;;;17.88;;
40256;SDS011;25977;45.462;9.210;2022-10-20T15:53:50;29.33;;;17.25;;
40256;SDS011;25977;45.462;9.210;2022-10-20T15:56:16;30.63;;;16.95;;
40256;SDS011;25977;45.462;9.210;2022-10-20T15:58:43;30.55;;;16.88;;
40256;SDS011;25977;45.462;9.210;2022-10-20T16:01:13;27.05;;;17.30;;
40256;SDS011;25977;45.462;9.210;2022-10-20T16:03:41;26.05;;;17.50;;
40256;SDS011;25977;45.462;9.210;2022-10-20T16:06:08;33.53;;;19.63;;
40256;SDS011;25977;45.462;9.210;2022-10-20T16:08:34;37.72;;;17.63;;
40256;SDS011;25977;45.462;9.210;2022-10-20T16:11:00;29.42;;;18.15;;
40256;SDS011;25977;45.462;9.210;2022-10-20T16:13:27;38.63;;;18.15;;
40256;SDS011;25977;45.462;9.210;2022-10-20T16:15:53;39.92;;;18.70;;
40256;SDS011;25977;45.462;9.210;2022-10-20T16:18:18;36.45;;;20.05;;
40256;SDS011;25977;45.462;9.210;2022-10-20T16:20:44;31.40;;;18.95;;
40256;SDS011;25977;45.462;9.210;2022-10-20T16:23:10;33.65;;;18.52;;
40256;SDS011;25977;45.462;9.210;2022-10-20T16:25:37;29.25;;;17.15;;
40256;SDS011;25977;45.462;9.210;2022-10-20T16:28:04;31.50;;;19.65;;
40256;SDS011;25977;45.462;9.210;2022-10-20T16:30:29;35.60;;;21.15;;
40256;SDS011;25977;45.462;9.210;2022-10-20T16:32:55;35.20;;;18.52;;
40256;SDS011;25977;45.462;9.210;2022-10-20T16:35:21;28.23;;;17.25;;
40256;SDS011;25977;45.462;9.210;2022-10-20T16:37:46;32.70;;;17.90;;
40256;SDS011;25977;45.462;9.210;2022-10-20T16:40:12;34.92;;;17.23;;
40256;SDS011;25977;45.462;9.210;2022-10-20T16:42:38;36.70;;;18.65;;
40256;SDS011;25977;45.462;9.210;2022-10-20T16:45:04;36.08;;;19.92;;
40256;SDS011;25977;45.462;9.210;2022-10-20T16:47:30;37.38;;;20.48;;
40256;SDS011;25977;45.462;9.210;2022-10-20T16:49:56;44.28;;;19.27;;
40256;SDS011;25977;45.462;9.210;2022-10-20T16:52:22;32.95;;;18.90;;
40256;SDS011;25977;45.462;9.210;2022-10-20T16:54:47;38.72;;;20.67;;
40256;SDS011;25977;45.462;9.210;2022-10-20T16:57:13;44.90;;;19.73;;
40256;SDS011;25977;45.462;9.210;2022-10-20T16:59:39;32.60;;;19.20;;
40256;SDS011;25977;45.462;9.210;2022-10-20T17:02:06;33.08;;;19.60;;
40256;SDS011;25977;45.462;9.210;2022-10-20T17:04:33;38.42;;;19.77;;
40256;SDS011;25977;45.462;9.210;2022-10-20T17:06:59;38.17;;;19.63;;
40256;SDS011;25977;45.462;9.210;2022-10-20T17:09:25;34.38;;;19.67;;
40256;SDS011;25977;45.462;9.210;2022-10-20T17:11:50;33.15;;;19.58;;
40256;SDS011;25977;45.462;9.210;2022-10-20T17:14:16;35.40;;;19.20;;
40256;SDS011;25977;45.462;9.210;2022-10-20T17:16:42;29.70;;;18.92;;